Time;durP1;ratioP1;P1;durP2;ratioP2;P2;SDS_P1;SDS_P2;PMS_P1;PMS_P2;Temp;Humidity;BMP_temperature;BMP_pressure;BME280_temperature;BME280_humidity;BME280_pressure;Samples;Min_cycle;Max_cycle;Signal;HPM_P1;HPM_P2
2023/07/11 00:01:19;;;;;;;3.05;1.58;;;;;;;18.04;100.00;100961.66;6130658;29;20184;-94
2023/07/11 00:04:21;;;;;;;3.83;1.90;;;;;;;18.06;100.00;100953.63;6116052;29;20514;-94
2023/07/11 00:07:22;;;;;;;3.67;2.00;;;;;;;18.07;100.00;100958.72;6117998;29;20044;-94
2023/07/11 00:10:24;;;;;;;2.83;1.95;;;;;;;18.04;100.00;100956.41;6118964;29;20043;-94
2023/07/11 00:13:27;;;;;;;2.25;1.77;;;;;;;17.96;100.00;100950.31;6132949;28;20051;-94
2023/07/11 00:16:29;;;;;;;3.20;1.67;;;;;;;17.92;100.00;100949.81;6120927;29;20043;-94
2023/07/11 00:19:47;;;;;;;3.10;1.85;;;;;;;17.95;100.00;100952.13;6117324;29;20573;-94
2023/07/11 00:22:49;;;;;;;4.55;2.40;;;;;;;17.93;100.00;100948.03;6122833;28;20036;-94
2023/07/11 00:25:52;;;;;;;2.72;1.77;;;;;;;17.82;100.00;100951.75;6121364;29;20581;-95
2023/07/11 00:28:54;;;;;;;4.57;2.28;;;;;;;17.73;100.00;100952.66;6126771;28;20055;-94
2023/07/11 00:31:57;;;;;;;3.85;1.80;;;;;;;17.64;100.00;100951.81;6124938;29;20047;-95
2023/07/11 00:34:58;;;;;;;5.47;2.10;;;;;;;17.63;100.00;100944.94;6136255;28;20062;-94
2023/07/11 00:38:00;;;;;;;4.25;2.10;;;;;;;17.60;100.00;100942.63;6121073;29;20442;-94
2023/07/11 00:41:06;;;;;;;3.40;1.88;;;;;;;17.58;100.00;100937.53;6120882;29;20039;-95
2023/07/11 00:44:13;;;;;;;5.85;2.45;;;;;;;17.55;100.00;100939.66;6121097;29;20051;-94
2023/07/11 00:47:15;;;;;;;4.00;2.00;;;;;;;17.52;100.00;100935.56;6124831;29;20061;-94
2023/07/11 00:50:17;;;;;;;4.35;2.30;;;;;;;17.54;100.00;100940.63;6116789;29;20056;-94
2023/07/11 00:53:20;;;;;;;3.33;2.03;;;;;;;17.44;100.00;100930.31;6118234;28;20094;-95
2023/07/11 00:56:27;;;;;;;2.83;2.00;;;;;;;17.41;100.00;100928.78;6098799;29;20055;-94
2023/07/11 00:59:30;;;;;;;5.95;1.90;;;;;;;17.37;100.00;100924.84;6122044;29;20066;-94
2023/07/11 01:02:33;;;;;;;3.00;2.33;;;;;;;17.39;100.00;100916.84;6128885;28;20261;-94
2023/07/11 01:05:37;;;;;;;5.30;2.33;;;;;;;17.37;100.00;100913.56;6130324;28;20413;-95
2023/07/11 01:08:40;;;;;;;6.28;2.35;;;;;;;17.33;100.00;100905.19;6102441;29;20047;-94
2023/07/11 01:11:57;;;;;;;2.25;1.63;;;;;;;17.32;100.00;100902.75;6116004;29;20055;-94
2023/07/11 01:14:59;;;;;;;4.53;2.20;;;;;;;17.29;100.00;100903.03;6119230;29;20490;-94
2023/07/11 01:18:01;;;;;;;5.40;2.03;;;;;;;17.25;100.00;100902.56;6124153;29;20240;-94
2023/07/11 01:21:04;;;;;;;4.13;2.33;;;;;;;17.65;100.00;100901.09;6119597;29;20538;-93
2023/07/11 01:24:07;;;;;;;6.22;2.20;;;;;;;17.23;100.00;100894.84;6129551;28;20134;-95
2023/07/11 01:27:09;;;;;;;3.13;2.17;;;;;;;17.16;100.00;100893.00;6119299;29;20051;-95
2023/07/11 01:30:15;;;;;;;5.25;2.40;;;;;;;17.10;100.00;100891.03;6116247;29;20529;-94
2023/07/11 01:33:17;;;;;;;2.35;2.10;;;;;;;17.15;100.00;100897.44;6116382;29;20039;-94
2023/07/11 01:36:19;;;;;;;3.90;2.20;;;;;;;17.10;100.00;100893.63;6128429;29;20051;-94
2023/07/11 01:39:21;;;;;;;4.57;1.88;;;;;;;17.22;100.00;100889.78;6132854;29;20045;-95
2023/07/11 01:42:25;;;;;;;4.80;2.10;;;;;;;17.01;100.00;100890.16;6153939;28;20408;-95
2023/07/11 01:45:27;;;;;;;4.97;2.30;;;;;;;16.99;100.00;100886.84;6136096;29;20253;-94
2023/07/11 01:48:29;;;;;;;6.18;2.50;;;;;;;17.11;100.00;100882.19;6114914;29;20498;-94
2023/07/11 01:51:31;;;;;;;4.97;2.17;;;;;;;16.92;100.00;100878.81;6120659;28;20055;-95
2023/07/11 01:54:33;;;;;;;2.80;1.95;;;;;;;16.90;100.00;100879.97;6125857;29;20086;-93
2023/07/11 01:57:37;;;;;;;5.03;2.45;;;;;;;17.01;100.00;100875.25;6125223;29;20086;-94
2023/07/11 02:00:38;;;;;;;4.60;2.28;;;;;;;16.82;100.00;100874.66;6122352;29;20043;-94
2023/07/11 02:03:41;;;;;;;4.47;2.30;;;;;;;16.81;100.00;100876.44;6110598;29;20612;-94
2023/07/11 02:06:42;;;;;;;4.43;2.28;;;;;;;17.09;100.00;100877.13;6116681;29;20031;-93
2023/07/11 02:09:44;;;;;;;4.50;2.53;;;;;;;17.17;100.00;100876.34;6116007;29;20044;-94
2023/07/11 02:12:46;;;;;;;8.13;2.33;;;;;;;17.25;100.00;100870.34;6114471;29;20505;-94
2023/07/11 02:15:49;;;;;;;4.03;2.42;;;;;;;17.21;100.00;100868.00;6114203;29;20043;-94
2023/07/11 02:18:53;;;;;;;6.20;2.20;;;;;;;17.20;100.00;100866.38;6117596;29;20407;-94
2023/07/11 02:21:55;;;;;;;4.32;2.30;;;;;;;17.18;100.00;100862.28;6124530;29;20064;-94
2023/07/11 02:24:57;;;;;;;4.82;2.20;;;;;;;17.13;100.00;100861.94;6117907;29;20047;-94
2023/07/11 02:27:59;;;;;;;6.30;2.40;;;;;;;17.15;100.00;100862.59;6100469;29;20047;-94
2023/07/11 02:31:01;;;;;;;6.85;2.45;;;;;;;17.07;100.00;100854.69;6114978;29;20044;-94
2023/07/11 02:34:04;;;;;;;4.88;2.28;;;;;;;17.08;100.00;100856.34;6115553;29;20047;-94
2023/07/11 02:37:05;;;;;;;5.20;2.13;;;;;;;17.07;100.00;100857.31;6123298;29;20051;-94
2023/07/11 02:40:08;;;;;;;6.05;2.42;;;;;;;17.09;100.00;100852.75;6123575;28;20398;-94
2023/07/11 02:43:10;;;;;;;6.45;2.20;;;;;;;17.11;100.00;100845.56;6121371;29;20039;-94
2023/07/11 02:46:14;;;;;;;5.80;2.00;;;;;;;17.12;100.00;100849.84;6115062;29;20048;-94
2023/07/11 02:49:18;;;;;;;6.35;2.45;;;;;;;17.14;100.00;100853.09;6113906;29;20681;-94
2023/07/11 02:52:20;;;;;;;6.28;2.25;;;;;;;16.76;100.00;100857.75;6120603;28;20409;-94
2023/07/11 02:55:21;;;;;;;6.40;2.30;;;;;;;16.60;100.00;100853.25;6136430;29;20051;-94
2023/07/11 02:58:24;;;;;;;4.50;2.33;;;;;;;16.53;100.00;100849.59;6120650;29;20465;-94
2023/07/11 03:01:30;;;;;;;5.68;2.10;;;;;;;16.49;100.00;100851.69;6117118;29;20044;-94
2023/07/11 03:04:32;;;;;;;9.63;2.50;;;;;;;16.49;100.00;100841.22;6101058;29;20083;-93
2023/07/11 03:07:34;;;;;;;6.75;2.08;;;;;;;16.50;100.00;100840.28;6113713;29;20047;-94
2023/07/11 03:10:37;;;;;;;6.88;2.40;;;;;;;16.52;100.00;100838.34;6123006;29;20048;-94
2023/07/11 03:13:39;;;;;;;4.47;1.75;;;;;;;16.58;100.00;100836.91;6119506;29;20120;-94
2023/07/11 03:16:42;;;;;;;4.03;2.08;;;;;;;16.75;100.00;100846.50;6119827;29;20047;-95
2023/07/11 03:19:44;;;;;;;5.15;2.17;;;;;;;16.99;100.00;100840.63;6117374;29;20051;-94
2023/07/11 03:22:46;;;;;;;6.65;2.20;;;;;;;17.04;100.00;100834.09;6119104;29;20046;-93
2023/07/11 03:25:48;;;;;;;6.13;2.60;;;;;;;17.02;100.00;100829.03;6121327;29;20517;-94
2023/07/11 03:28:50;;;;;;;4.25;2.40;;;;;;;17.10;100.00;100829.06;6130282;28;20066;-94
2023/07/11 03:31:52;;;;;;;5.68;2.22;;;;;;;17.14;100.00;100819.09;6112584;29;20051;-94
2023/07/11 03:34:53;;;;;;;6.75;2.72;;;;;;;17.15;100.00;100815.53;6125248;29;20043;-94
2023/07/11 03:38:04;;;;;;;4.00;2.28;;;;;;;17.17;100.00;100817.00;6119404;29;20385;-94
2023/07/11 03:41:06;;;;;;;6.25;2.63;;;;;;;17.23;100.00;100810.31;6118913;29;20059;-94
2023/07/11 03:44:09;;;;;;;7.03;2.40;;;;;;;17.27;100.00;100800.38;6114893;29;20504;-94
2023/07/11 03:47:10;;;;;;;3.58;1.90;;;;;;;17.30;100.00;100807.91;6118401;29;20414;-94
2023/07/11 03:50:12;;;;;;;4.38;2.25;;;;;;;17.33;100.00;100797.09;6118656;29;20052;-94
2023/07/11 03:53:14;;;;;;;8.40;2.42;;;;;;;17.37;100.00;100794.00;6101883;29;20516;-94
2023/07/11 03:56:16;;;;;;;4.68;2.40;;;;;;;17.39;100.00;100802.53;6120374;29;20047;-94
2023/07/11 03:59:19;;;;;;;6.90;2.40;;;;;;;17.38;100.00;100800.06;6120056;29;20036;-94
2023/07/11 04:02:20;;;;;;;7.85;2.92;;;;;;;17.39;100.00;100801.69;6121026;28;20044;-93
2023/07/11 04:05:22;;;;;;;6.85;2.42;;;;;;;17.42;100.00;100801.41;6124829;29;20062;-94
2023/07/11 04:08:25;;;;;;;11.90;2.78;;;;;;;17.44;100.00;100781.94;6117660;29;20565;-94
2023/07/11 04:11:26;;;;;;;4.55;2.28;;;;;;;17.46;100.00;100781.75;6108451;29;20616;-94
2023/07/11 04:14:28;;;;;;;5.82;2.20;;;;;;;17.27;100.00;100780.25;6118707;29;20499;-94
2023/07/11 04:17:29;;;;;;;7.78;2.78;;;;;;;17.28;100.00;100781.06;6107352;29;20502;-94
2023/07/11 04:20:34;;;;;;;5.93;2.50;;;;;;;17.18;100.00;100779.38;6117521;29;20043;-94
2023/07/11 04:23:35;;;;;;;6.15;2.42;;;;;;;17.31;100.00;100783.34;6116410;29;20046;-94
2023/07/11 04:26:37;;;;;;;5.07;2.28;;;;;;;17.50;100.00;100783.09;6122430;28;20043;-94
2023/07/11 04:29:39;;;;;;;6.05;2.53;;;;;;;17.22;100.00;100770.25;6124375;28;20086;-94
2023/07/11 04:32:41;;;;;;;8.57;2.65;;;;;;;17.50;100.00;100780.47;6118611;29;20035;-94
2023/07/11 04:35:44;;;;;;;5.70;2.72;;;;;;;17.30;100.00;100782.53;6118420;29;20048;-94
2023/07/11 04:38:45;;;;;;;6.80;2.85;;;;;;;17.55;100.00;100769.53;6107349;29;20128;-94
2023/07/11 04:41:48;;;;;;;11.27;2.80;;;;;;;17.62;100.00;100767.91;6124841;28;20058;-94
2023/07/11 04:44:50;;;;;;;5.82;2.47;;;;;;;17.68;100.00;100763.81;6115156;29;20051;-94
2023/07/11 04:47:52;;;;;;;5.38;2.25;;;;;;;17.47;100.00;100777.38;6117792;29;20052;-94
2023/07/11 04:50:59;;;;;;;6.25;2.55;;;;;;;17.70;100.00;100770.53;6118553;29;20051;-96
2023/07/11 04:54:01;;;;;;;8.82;3.20;;;;;;;17.60;100.00;100777.72;6117802;29;20099;-94
2023/07/11 04:57:03;;;;;;;5.90;2.25;;;;;;;17.76;100.00;100766.44;6117928;29;20162;-95
2023/07/11 05:00:06;;;;;;;8.23;2.40;;;;;;;17.81;100.00;100778.13;6117822;29;20050;-94
2023/07/11 05:03:07;;;;;;;8.38;2.60;;;;;;;17.83;100.00;100773.50;6126469;28;20054;-94
2023/07/11 05:06:12;;;;;;;8.13;2.88;;;;;;;17.92;100.00;100770.91;6115479;29;20051;-94
2023/07/11 05:09:15;;;;;;;5.30;2.33;;;;;;;17.85;100.00;100768.13;6116518;29;20047;-95
2023/07/11 05:12:17;;;;;;;5.95;2.50;;;;;;;18.14;100.00;100761.59;6117957;29;20043;-95
2023/07/11 05:15:18;;;;;;;6.40;3.10;;;;;;;17.76;100.00;100763.81;6117541;29;20192;-95
2023/07/11 05:18:20;;;;;;;5.40;2.33;;;;;;;17.71;100.00;100756.44;6118091;29;20070;-96
2023/07/11 05:21:22;;;;;;;7.88;2.80;;;;;;;17.74;100.00;100761.38;6132367;29;20039;-95
2023/07/11 05:24:25;;;;;;;6.25;2.47;;;;;;;17.83;100.00;100757.78;6132359;28;20055;-95
2023/07/11 05:27:27;;;;;;;4.65;2.80;;;;;;;17.91;100.00;100756.97;6128750;28;20075;-95
2023/07/11 05:30:29;;;;;;;4.97;2.60;;;;;;;17.99;100.00;100745.72;6116040;29;20637;-95
2023/07/11 05:33:32;;;;;;;4.03;2.33;;;;;;;18.04;100.00;100743.41;6117418;29;20040;-95
2023/07/11 05:36:39;;;;;;;7.97;2.60;;;;;;;18.08;100.00;100739.47;6125730;28;20043;-95
2023/07/11 05:39:41;;;;;;;5.40;2.47;;;;;;;18.14;100.00;100738.81;6128068;29;20845;-95
2023/07/11 05:42:43;;;;;;;6.68;2.42;;;;;;;18.21;100.00;100737.19;6122055;29;20051;-95
2023/07/11 05:45:45;;;;;;;4.15;2.55;;;;;;;18.24;100.00;100744.69;6124779;29;20055;-95
2023/07/11 05:48:48;;;;;;;5.15;2.50;;;;;;;18.67;100.00;100733.94;6120702;29;20047;-95
2023/07/11 05:51:50;;;;;;;4.65;2.42;;;;;;;18.89;100.00;100727.19;6118626;28;20047;-95
2023/07/11 05:54:52;;;;;;;6.00;2.80;;;;;;;18.98;100.00;100714.84;6134788;29;20409;-96
2023/07/11 05:57:54;;;;;;;4.28;2.58;;;;;;;19.04;100.00;100708.91;6108209;29;20047;-95
2023/07/11 06:00:57;;;;;;;6.38;2.22;;;;;;;19.09;100.00;100715.28;6119276;29;20044;-95
2023/07/11 06:04:17;;;;;;;4.15;2.38;;;;;;;19.17;100.00;100709.16;6125386;28;20494;-95
2023/07/11 06:07:19;;;;;;;5.30;2.40;;;;;;;19.25;100.00;100708.28;6118894;29;20039;-95
2023/07/11 06:10:21;;;;;;;7.00;2.30;;;;;;;19.35;100.00;100704.47;6123022;29;20365;-95
2023/07/11 06:13:24;;;;;;;3.53;2.38;;;;;;;19.38;100.00;100700.69;6121073;29;20055;-95
2023/07/11 06:16:26;;;;;;;3.70;2.42;;;;;;;19.50;100.00;100694.03;6116538;29;20035;-95
2023/07/11 06:19:28;;;;;;;5.25;2.60;;;;;;;19.56;100.00;100689.88;6119205;29;20039;-95
2023/07/11 06:22:30;;;;;;;3.78;2.20;;;;;;;19.56;100.00;100687.25;6117760;28;20574;-96
2023/07/11 06:25:33;;;;;;;5.97;2.72;;;;;;;19.66;100.00;100695.69;6130063;29;20610;-96
2023/07/11 06:28:37;;;;;;;4.85;2.40;;;;;;;19.78;100.00;100683.81;6103277;29;20107;-95
2023/07/11 06:31:44;;;;;;;4.35;2.30;;;;;;;19.95;100.00;100683.66;6128236;28;20052;-95
2023/07/11 06:34:46;;;;;;;2.47;2.20;;;;;;;20.04;100.00;100682.59;6086313;29;20163;-95
2023/07/11 06:37:48;;;;;;;2.10;1.88;;;;;;;20.10;100.00;100678.41;6117552;29;20138;-96
2023/07/11 06:40:53;;;;;;;4.88;2.35;;;;;;;20.20;100.00;100673.72;6120704;29;20048;-96
2023/07/11 06:43:55;;;;;;;3.30;2.35;;;;;;;20.33;100.00;100676.53;6119281;29;20521;-96
2023/07/11 06:46:58;;;;;;;4.90;2.60;;;;;;;20.40;100.00;100677.44;6121429;29;20577;-96
2023/07/11 06:50:00;;;;;;;4.22;2.30;;;;;;;20.52;100.00;100662.03;6121554;29;20064;-95
2023/07/11 06:53:02;;;;;;;6.55;2.53;;;;;;;20.59;100.00;100667.38;6119154;29;20048;-96
2023/07/11 06:56:04;;;;;;;6.80;3.10;;;;;;;20.68;100.00;100660.22;6103089;29;20059;-96
2023/07/11 06:59:06;;;;;;;3.83;2.40;;;;;;;20.81;100.00;100666.44;6121279;29;20181;-96
2023/07/11 07:02:09;;;;;;;3.92;2.38;;;;;;;20.89;100.00;100662.06;6122216;28;20058;-96
2023/07/11 07:05:12;;;;;;;5.93;2.20;;;;;;;20.99;100.00;100657.31;6119167;29;20047;-96
2023/07/11 07:08:14;;;;;;;3.92;2.50;;;;;;;20.91;100.00;100644.28;6096079;29;20509;-96
2023/07/11 07:11:17;;;;;;;5.63;2.03;;;;;;;21.02;100.00;100647.25;6118274;29;20044;-96
2023/07/11 07:14:19;;;;;;;4.88;2.50;;;;;;;21.13;100.00;100647.75;6118935;29;20055;-96
2023/07/11 07:17:22;;;;;;;2.83;2.50;;;;;;;21.26;100.00;100647.88;6098390;29;20048;-96
2023/07/11 07:20:25;;;;;;;5.00;2.60;;;;;;;21.35;100.00;100635.41;6118450;29;20042;-96
2023/07/11 07:23:28;;;;;;;4.05;2.20;;;;;;;21.47;100.00;100641.81;6108101;29;20051;-96
2023/07/11 07:26:30;;;;;;;3.10;2.30;;;;;;;21.60;100.00;100641.94;6104607;29;20050;-96
2023/07/11 07:29:32;;;;;;;4.97;2.20;;;;;;;21.69;100.00;100635.53;6121707;29;20109;-96
2023/07/11 07:32:35;;;;;;;5.70;2.55;;;;;;;21.54;100.00;100636.59;6123785;29;20133;-96
2023/07/11 07:35:37;;;;;;;4.55;2.67;;;;;;;21.67;100.00;100634.91;6104393;29;20043;-96
2023/07/11 07:38:39;;;;;;;5.40;2.60;;;;;;;21.82;100.00;100631.34;6120213;29;20383;-96
2023/07/11 07:41:42;;;;;;;3.95;2.40;;;;;;;21.97;100.00;100632.06;6102305;29;20497;-96
2023/07/11 07:44:44;;;;;;;3.55;2.05;;;;;;;22.06;100.00;100630.91;6117997;29;20059;-96
2023/07/11 07:47:46;;;;;;;3.75;2.90;;;;;;;22.23;100.00;100631.41;6117375;29;20117;-96
2023/07/11 07:50:49;;;;;;;4.22;2.42;;;;;;;22.30;100.00;100632.25;6115605;29;20051;-96
2023/07/11 07:53:51;;;;;;;4.90;2.67;;;;;;;22.36;100.00;100613.03;6117386;29;20049;-96
2023/07/11 07:56:53;;;;;;;4.15;2.45;;;;;;;22.43;100.00;100612.22;6110159;29;20107;-96
2023/07/11 07:59:56;;;;;;;5.10;2.63;;;;;;;22.53;100.00;100610.88;6121322;29;20040;-96
2023/07/11 08:02:58;;;;;;;4.10;2.70;;;;;;;22.69;100.00;100606.25;6105338;29;20494;-96
2023/07/11 08:06:00;;;;;;;3.08;2.78;;;;;;;22.36;100.00;100601.66;6119417;29;20142;-96
2023/07/11 08:09:17;;;;;;;6.57;2.75;;;;;;;22.29;100.00;100599.00;6114975;29;20126;-96
2023/07/11 08:12:21;;;;;;;4.78;3.05;;;;;;;22.36;100.00;100591.94;6118565;29;20085;-96
2023/07/11 08:15:23;;;;;;;4.82;3.08;;;;;;;22.42;100.00;100585.03;6100376;29;20128;-96
2023/07/11 08:18:25;;;;;;;6.18;3.33;;;;;;;22.45;100.00;100584.63;6117610;29;20048;-96
2023/07/11 08:21:27;;;;;;;3.53;2.70;;;;;;;22.52;100.00;100577.56;6117503;29;20592;-96
2023/07/11 08:24:30;;;;;;;5.07;2.88;;;;;;;22.58;100.00;100584.69;6128179;29;20055;-96
2023/07/11 08:27:34;;;;;;;3.25;2.75;;;;;;;22.67;100.00;100572.13;6118670;29;20046;-96
2023/07/11 08:30:39;;;;;;;5.22;2.88;;;;;;;22.69;100.00;100566.66;6125980;29;20052;-96
2023/07/11 08:33:42;;;;;;;3.38;2.70;;;;;;;22.71;100.00;100562.81;6121649;29;20048;-96
2023/07/11 08:36:46;;;;;;;3.97;2.70;;;;;;;22.77;100.00;100564.63;6122384;29;20051;-96
2023/07/11 08:39:48;;;;;;;3.55;3.15;;;;;;;22.94;100.00;100561.63;6122666;29;20600;-96
2023/07/11 08:42:51;;;;;;;5.00;2.80;;;;;;;23.11;100.00;100557.59;6113106;29;20055;-96
2023/07/11 08:45:59;;;;;;;4.43;2.90;;;;;;;23.13;100.00;100566.13;6119250;29;20047;-96
2023/07/11 08:49:23;;;;;;;4.13;2.63;;;;;;;23.26;100.00;100548.66;6121229;29;20497;-96
2023/07/11 08:52:26;;;;;;;;;;;;;;;23.41;100.00;100550.06;6123782;29;20418;-96
2023/07/11 08:55:32;;;;;;;4.50;3.13;;;;;;;23.54;100.00;100549.22;6126326;29;19933;-96
2023/07/11 08:58:38;;;;;;;3.75;2.97;;;;;;;23.59;100.00;100549.41;6106074;29;20058;-96
2023/07/11 09:02:06;;;;;;;4.10;3.10;;;;;;;23.72;100.00;100545.94;6114322;29;20048;-96
2023/07/11 09:05:16;;;;;;;3.28;2.90;;;;;;;23.85;100.00;100543.31;6043807;29;20089;-95
2023/07/11 09:08:20;;;;;;;5.78;3.38;;;;;;;23.85;100.00;100534.56;6045296;29;20758;-96
2023/07/11 09:11:44;;;;;;;3.20;2.85;;;;;;;23.94;100.00;100530.66;6045115;29;20053;-96
2023/07/11 09:15:03;;;;;;;4.88;2.83;;;;;;;24.05;100.00;100534.50;6045391;29;20053;-96
2023/07/11 09:18:05;;;;;;;4.93;2.90;;;;;;;24.18;100.00;100525.69;6045930;29;20169;-95
2023/07/11 09:21:26;;;;;;;4.32;3.20;;;;;;;24.25;100.00;100521.16;6036134;29;20056;-95
2023/07/11 09:24:46;;;;;;;4.35;3.05;;;;;;;24.40;100.00;100520.88;6035762;29;20168;-95
2023/07/11 09:27:53;;;;;;;6.85;3.13;;;;;;;24.55;100.00;100513.50;6045063;29;20102;-95
2023/07/11 09:31:08;;;;;;;5.43;3.00;;;;;;;24.73;100.00;100520.69;6029956;29;20439;-95
2023/07/11 09:34:26;;;;;;;5.32;3.33;;;;;;;24.84;100.00;100514.69;6044854;29;20064;-95
2023/07/11 09:37:58;;;;;;;3.63;3.08;;;;;;;25.04;100.00;100505.78;6044708;29;20165;-95
2023/07/11 09:41:15;;;;;;;6.72;3.40;;;;;;;25.17;100.00;100504.88;6052741;29;20052;-95
2023/07/11 09:44:17;;;;;;;4.22;3.83;;;;;;;25.24;100.00;100506.47;6108564;29;20046;-94
2023/07/11 09:47:19;;;;;;;4.57;3.50;;;;;;;25.30;100.00;100507.41;6125045;29;20051;-94
2023/07/11 09:50:40;;;;;;;7.32;3.70;;;;;;;25.45;100.00;100493.81;6111417;29;20211;-95
2023/07/11 09:53:49;;;;;;;5.82;3.55;;;;;;;25.57;100.00;100492.84;6112962;29;20043;-94
2023/07/11 09:56:51;;;;;;;4.30;3.30;;;;;;;25.73;100.00;100477.38;6112085;29;20062;-94
2023/07/11 09:59:59;;;;;;;4.40;3.45;;;;;;;25.89;100.00;100471.50;6122003;29;20050;-94
2023/07/11 10:03:26;;;;;;;4.40;3.40;;;;;;;26.09;100.00;100484.50;6116727;29;20046;-94
2023/07/11 10:06:35;;;;;;;4.40;3.70;;;;;;;26.32;100.00;100478.47;6106050;29;20450;-94
2023/07/11 10:09:48;;;;;;;4.38;3.28;;;;;;;26.50;100.00;100474.94;6110416;29;20133;-94
2023/07/11 10:12:50;;;;;;;4.50;3.35;;;;;;;26.52;100.00;100470.22;6114141;29;20119;-94
2023/07/11 10:15:54;;;;;;;5.85;3.40;;;;;;;26.53;100.00;100471.03;6129205;28;20126;-94
2023/07/11 10:18:55;;;;;;;5.75;3.35;;;;;;;26.63;100.00;100465.97;6117376;29;20044;-94
2023/07/11 10:21:59;;;;;;;4.63;3.30;;;;;;;26.91;100.00;100467.19;6125159;29;20146;-94
2023/07/11 10:25:22;;;;;;;3.72;3.20;;;;;;;26.99;100.00;100451.69;6116258;29;20055;-94
2023/07/11 10:28:43;;;;;;;4.43;3.50;;;;;;;26.94;100.00;100451.56;6109284;29;20056;-93
2023/07/11 10:31:56;;;;;;;4.30;3.25;;;;;;;26.90;100.00;100441.63;6107044;29;20135;-94
2023/07/11 10:35:00;;;;;;;4.97;3.70;;;;;;;26.95;100.00;100439.09;6117907;29;20122;-94
2023/07/11 10:38:25;;;;;;;5.68;4.05;;;;;;;27.15;100.00;100442.19;6100509;29;20051;-94
2023/07/11 10:41:49;;;;;;;6.00;3.75;;;;;;;27.41;100.00;100438.25;6116805;29;20051;-94
2023/07/11 10:45:07;;;;;;;4.57;3.38;;;;;;;27.64;100.00;100432.06;6109982;29;20047;-95
2023/07/11 10:48:41;;;;;;;4.18;3.63;;;;;;;27.99;100.00;100433.81;6113636;29;20048;-95
2023/07/11 10:51:56;;;;;;;4.82;4.35;;;;;;;27.99;100.00;100423.16;6115296;29;20123;-95
2023/07/11 10:55:20;;;;;;;4.45;3.80;;;;;;;27.99;100.00;100428.47;6116033;29;20046;-95
2023/07/11 10:58:23;;;;;;;4.35;3.70;;;;;;;28.07;100.00;100414.81;6114794;29;20039;-95
2023/07/11 11:01:58;;;;;;;5.60;3.95;;;;;;;28.18;100.00;100410.47;6106952;29;20359;-94
2023/07/11 11:05:38;;;;;;;6.88;3.70;;;;;;;28.30;100.00;100403.22;6116659;29;20055;-94
2023/07/11 11:08:57;;;;;;;5.18;3.92;;;;;;;28.49;100.00;100403.78;6090217;29;20147;-94
2023/07/11 11:12:12;;;;;;;4.25;3.80;;;;;;;28.80;100.00;100398.91;6116793;29;20779;-94
2023/07/11 11:15:14;;;;;;;5.47;3.95;;;;;;;29.07;100.00;100398.22;6117335;29;20476;-94
2023/07/11 11:18:22;;;;;;;4.72;3.67;;;;;;;29.08;100.00;100391.84;6115458;29;20055;-93
2023/07/11 11:21:44;;;;;;;3.90;3.47;;;;;;;29.22;100.00;100393.09;6122402;29;20046;-94
2023/07/11 11:25:03;;;;;;;5.07;4.15;;;;;;;29.12;100.00;100377.78;6123523;29;20047;-94
2023/07/11 11:28:30;;;;;;;7.10;4.35;;;;;;;29.16;100.00;100373.56;6114074;29;20040;-94
2023/07/11 11:31:36;;;;;;;4.30;3.90;;;;;;;29.52;100.00;100370.50;6121371;29;20051;-93
2023/07/11 11:34:44;;;;;;;9.02;3.95;;;;;;;29.95;100.00;100364.25;6123129;28;20421;-93
2023/07/11 11:38:17;;;;;;;4.38;3.67;;;;;;;30.44;100.00;100358.81;6126898;28;20050;-93
2023/07/11 11:41:28;;;;;;;4.53;4.03;;;;;;;30.72;100.00;100358.69;6120743;29;20043;-93
2023/07/11 11:44:45;;;;;;;5.78;3.97;;;;;;;30.53;100.00;100355.63;6123153;29;20040;-93
2023/07/11 11:47:53;;;;;;;4.23;3.83;;;;;;;30.25;100.00;100347.72;6121894;29;20048;-94
2023/07/11 11:51:17;;;;;;;4.32;3.92;;;;;;;29.97;100.00;100354.16;6137388;29;20395;-94
2023/07/11 11:54:22;;;;;;;4.90;3.95;;;;;;;29.74;100.00;100351.78;6134936;28;20554;-94
2023/07/11 11:57:29;;;;;;;10.32;4.50;;;;;;;29.61;100.00;100342.31;6119557;29;20166;-95
2023/07/11 12:00:47;;;;;;;4.97;3.88;;;;;;;29.51;100.00;100329.66;6128364;29;20502;-94
2023/07/11 12:03:49;;;;;;;5.53;4.13;;;;;;;29.76;100.00;100331.81;6120022;29;20052;-93
2023/07/11 12:06:56;;;;;;;6.10;4.32;;;;;;;30.17;100.00;100332.13;6135062;29;20565;-94
2023/07/11 12:09:58;;;;;;;5.13;4.05;;;;;;;30.74;100.00;100324.50;6121979;29;20036;-93
2023/07/11 12:13:25;;;;;;;5.20;4.20;;;;;;;30.90;98.30;100318.97;6120743;29;20216;-93
2023/07/11 12:16:33;;;;;;;5.90;4.68;;;;;;;30.85;100.00;100315.47;6120319;29;20170;-96
2023/07/11 12:19:41;;;;;;;6.47;4.70;;;;;;;30.80;98.55;100316.22;6120732;29;20047;-94
2023/07/11 12:22:46;;;;;;;4.72;4.30;;;;;;;30.83;90.03;100317.59;6133909;28;20044;-94
2023/07/11 12:26:23;;;;;;;7.68;4.38;;;;;;;31.07;100.00;100310.75;6120188;29;20047;-94
2023/07/11 12:29:34;;;;;;;7.65;4.40;;;;;;;31.19;100.00;100313.19;6112131;29;20631;-94
2023/07/11 12:32:39;;;;;;;5.13;4.30;;;;;;;31.07;96.80;100309.94;6126790;29;20047;-95
2023/07/11 12:35:42;;;;;;;6.25;4.85;;;;;;;31.15;100.00;100303.28;6118641;29;20043;-94
2023/07/11 12:38:54;;;;;;;5.32;4.25;;;;;;;31.28;95.96;100300.91;6102950;29;20047;-95
2023/07/11 12:42:18;;;;;;;4.93;4.28;;;;;;;31.42;100.00;100303.91;6134952;28;20283;-94
2023/07/11 12:45:26;;;;;;;5.68;4.35;;;;;;;32.05;97.85;100297.50;6144622;28;20509;-94
2023/07/11 12:48:32;;;;;;;5.07;4.50;;;;;;;32.66;90.83;100294.72;6119596;29;20617;-94
2023/07/11 12:51:37;;;;;;;7.03;4.70;;;;;;;33.21;98.26;100284.78;6125492;28;20039;-94
2023/07/11 12:54:41;;;;;;;6.00;4.72;;;;;;;33.69;98.45;100294.97;6121317;28;20520;-94
2023/07/11 12:57:44;;;;;;;4.93;4.43;;;;;;;33.75;76.14;100284.97;6117989;29;20044;-95
2023/07/11 13:00:47;;;;;;;6.05;4.72;;;;;;;33.38;73.60;100280.94;6120567;29;20051;-94
2023/07/11 13:03:49;;;;;;;5.22;4.45;;;;;;;33.37;96.35;100268.63;6129705;29;20055;-94
2023/07/11 13:06:54;;;;;;;4.93;4.43;;;;;;;33.20;86.08;100269.78;6119832;28;20057;-94
2023/07/11 13:09:58;;;;;;;5.50;4.60;;;;;;;33.20;91.10;100269.78;6117438;29;20900;-94
2023/07/11 13:13:00;;;;;;;5.03;4.53;;;;;;;33.27;82.09;100266.81;6128034;28;20043;-95
2023/07/11 13:16:04;;;;;;;5.80;4.68;;;;;;;33.07;88.00;100264.22;6119865;29;20070;-94
2023/07/11 13:19:15;;;;;;;4.95;4.55;;;;;;;32.63;94.55;100254.25;6120305;29;20142;-95
2023/07/11 13:22:20;;;;;;;6.78;5.05;;;;;;;32.27;99.36;100257.81;6119817;29;20055;-94
2023/07/11 13:25:32;;;;;;;5.78;4.82;;;;;;;32.16;99.04;100254.38;6105949;29;20039;-94
2023/07/11 13:28:38;;;;;;;5.78;4.88;;;;;;;32.15;100.00;100249.31;6126727;28;20773;-95
2023/07/11 13:31:40;;;;;;;6.70;4.82;;;;;;;32.27;99.90;100244.44;6114593;29;20394;-94
2023/07/11 13:34:53;;;;;;;5.45;4.88;;;;;;;32.77;100.00;100247.19;6116726;29;20046;-94
2023/07/11 13:37:55;;;;;;;6.72;5.03;;;;;;;33.14;97.30;100244.06;6119849;29;20047;-95
2023/07/11 13:40:57;;;;;;;4.97;4.47;;;;;;;33.37;100.00;100241.78;6119045;29;20127;-94
2023/07/11 13:44:02;;;;;;;6.47;4.82;;;;;;;33.95;95.43;100238.34;6120294;29;20050;-93
2023/07/11 13:47:40;;;;;;;7.18;5.18;;;;;;;34.44;84.48;100248.03;6118869;29;20050;-94
2023/07/11 13:50:42;;;;;;;5.47;4.90;;;;;;;34.66;80.50;100234.03;6129562;28;20174;-94
2023/07/11 13:54:17;;;;;;;5.72;4.78;;;;;;;34.89;88.21;100227.03;6118132;28;20044;-94
2023/07/11 13:57:19;;;;;;;5.40;4.88;;;;;;;34.91;76.44;100224.84;6127544;29;20048;-93
2023/07/11 14:00:21;;;;;;;8.38;4.75;;;;;;;34.83;80.08;100226.28;6119049;29;20526;-93
2023/07/11 14:03:27;;;;;;;8.93;5.07;;;;;;;34.71;78.13;100224.03;6115944;29;20047;-94
2023/07/11 14:06:29;;;;;;;5.40;4.90;;;;;;;34.79;70.18;100219.91;6117693;29;20058;-94
2023/07/11 14:09:30;;;;;;;6.22;4.22;;;;;;;35.03;80.05;100217.13;6121135;29;20041;-94
2023/07/11 14:12:32;;;;;;;5.93;4.88;;;;;;;35.01;70.79;100211.25;6116481;28;20187;-94
2023/07/11 14:15:34;;;;;;;5.60;5.05;;;;;;;34.90;72.40;100205.19;6117531;29;20052;-94
2023/07/11 14:18:36;;;;;;;6.00;4.53;;;;;;;34.98;64.62;100209.13;6121769;29;20226;-94